This demonstration page uses our WeatherBlox Daily Observations layout. Learn more.

Left ArrowRight Arrow

38.83388, -104.82136

Hourly Observations for January 16, 2023

Temp ( °F °C ) Dew Point ( °F °C ) Humidity (%) Winds ( mph kmh ) Pressure ( in mb ) Visibility ( mi km ) Precip ( " mm )
12:55 am 00:55 Clear 31 -0.8 21 -6 68 68 Calm N/A 10 16 0.00 0.00
1:55 am 01:55 Clear 31 -0.4 20 -6.8 62 62 WSW 6 9 N/A 10 16 0.00 0.00
2:55 am 02:55 Clear 31 -0.4 18 -7.7 58 58 Calm N/A 10 16 0.00 0.00
3:55 am 03:55 Clear 31 -0.5 19 -7.5 59 59 S 6 9 N/A 10 16 0.00 0.00
4:55 am 04:55 Clear 32 -0.2 12 -11.3 43 43 WNW 3 6 N/A 10 16 0.00 0.00
5:55 am 05:55 Clear 31 -0.3 12 -11.1 44 44 SW 3 6 N/A 10 16 0.00 0.00
6:55 am 06:55 Clear 33 0.3 13 -10.8 43 43 SW 6 9 N/A 10 16 0.00 0.00
7:55 am 07:55 Partly Cloudy 35 1.4 13 -10.7 40 40 SE 3 6 N/A 10 16 0.00 0.00
8:55 am 08:55 Sunny 37 2.7 12 -11.3 35 35 Calm N/A 10 16 0.00 0.00
9:55 am 09:55 Mostly Sunny 41 5 21 -6 45 45 Calm N/A 10 16 0.00 0.00
10:55 am 10:55 Sunny 45 7.1 19 -7 36 36 ENE 5 7 N/A 10 16 0.00 0.00
11:55 am 11:55 Sunny 45 7.1 17 -8.1 33 33 NNE 6 9 N/A 10 16 0.00 0.00
12:55 pm 12:55 Sunny 45 7.2 14 -10.1 28 28 Calm N/A 10 16 0.00 0.00
1:55 pm 13:55 Mostly Cloudy 43 6.1 8 -13.5 23 23 NNE 6 9 N/A 10 16 0.00 0.00
2:55 pm 14:55 Mostly Cloudy 44 6.4 8 -13.3 23 23 Calm N/A 10 16 0.00 0.00
3:55 pm 15:55 Mostly Sunny 40 4.5 9 -12.9 27 27 Calm N/A 10 16 0.00 0.00
4:55 pm 16:55 Mostly Cloudy 38 3.4 11 -11.4 33 33 WNW 5 7 N/A 10 16 0.00 0.00
5:55 pm 17:55 Mostly Clear 40 4.5 10 -12 29 29 W 8 13 N/A 10 16 0.00 0.00
6:55 pm 18:55 Clear 38 3.2 12 -11.2 34 34 WNW 7 11 N/A 10 16 0.00 0.00
7:55 pm 19:55 Clear 35 1.8 13 -10.7 39 39 NW 5 7 N/A 10 16 0.00 0.00
8:55 pm 20:55 Mostly Cloudy 36 2.4 12 -11.2 36 36 Calm N/A 10 16 0.00 0.00
9:55 pm 21:55 Partly Cloudy 34 1.3 14 -10.2 42 42 WNW 8 13 N/A 10 16 0.00 0.00
10:55 pm 22:55 Clear 34 1.3 12 -11.2 39 39 WNW 7 11 N/A 10 16 0.00 0.00
11:55 pm 23:55 Clear 34 1.1 12 -11 40 40 WNW 8 13 N/A 10 16 0.00 0.00

Powered by Vaisala Xweather